Time;durP1;ratioP1;P1;durP2;ratioP2;P2;SDS_P1;SDS_P2;PMS_P1;PMS_P2;Temp;Humidity;BMP_temperature;BMP_pressure;BME280_temperature;BME280_humidity;BME280_pressure;Samples;Min_cycle;Max_cycle;Signal;HPM_P1;HPM_P2
2024/01/19 00:02:17;;;;;;;21.03;9.53;;;;;;;12.08;69.71;97983.75;5138176;27;20259;-91
2024/01/19 00:04:43;;;;;;;18.93;10.40;;;;;;;12.21;69.53;97990.56;5120172;27;20183;-91
2024/01/19 00:07:08;;;;;;;26.70;10.10;;;;;;;12.17;69.58;97993.56;5101837;28;20325;-91
2024/01/19 00:09:38;;;;;;;17.90;8.53;;;;;;;12.36;69.38;97993.81;5117661;28;20198;-92
2024/01/19 00:12:05;;;;;;;17.83;9.43;;;;;;;12.40;68.97;97999.63;5129747;27;20215;-92
2024/01/19 00:14:31;;;;;;;18.40;7.97;;;;;;;12.28;69.41;98004.91;5137946;27;20188;-91
2024/01/19 00:16:57;;;;;;;18.73;9.30;;;;;;;12.30;69.91;98004.78;5119614;27;20204;-92
2024/01/19 00:19:22;;;;;;;20.50;9.20;;;;;;;12.28;70.48;98001.44;5120089;27;20181;-93
2024/01/19 00:21:49;;;;;;;16.77;8.43;;;;;;;12.16;71.54;98007.63;5138485;27;20658;-93
2024/01/19 00:24:15;;;;;;;17.10;9.03;;;;;;;12.28;72.08;98018.06;5108449;28;20189;-93
2024/01/19 00:26:42;;;;;;;18.07;8.33;;;;;;;12.26;73.12;98030.44;5099448;28;20547;-93
2024/01/19 00:29:07;;;;;;;17.27;8.90;;;;;;;12.13;73.93;98042.84;5107502;27;20649;-92
2024/01/19 00:31:35;;;;;;;14.67;8.00;;;;;;;12.05;74.23;98055.75;5119948;27;20177;-92
2024/01/19 00:34:00;;;;;;;18.13;7.97;;;;;;;11.88;75.35;98058.78;5137997;27;20181;-93
2024/01/19 00:36:26;;;;;;;18.83;8.80;;;;;;;11.82;75.80;98058.44;5120219;27;20176;-92
2024/01/19 00:38:54;;;;;;;17.23;8.73;;;;;;;11.95;75.98;98056.56;5119778;27;20187;-91
2024/01/19 00:41:21;;;;;;;23.57;9.43;;;;;;;12.03;75.33;98060.25;5119433;27;20189;-94
2024/01/19 00:43:46;;;;;;;16.97;7.57;;;;;;;12.17;75.47;98056.59;5119592;27;20657;-92
2024/01/19 00:46:13;;;;;;;21.40;8.13;;;;;;;12.26;74.96;98050.66;5137482;27;20189;-92
2024/01/19 00:48:39;;;;;;;13.00;6.73;;;;;;;11.95;77.47;98054.75;5116719;28;20643;-93
2024/01/19 00:51:05;;;;;;;15.33;7.70;;;;;;;12.00;77.89;98049.16;5099481;28;20521;-92
2024/01/19 00:53:32;;;;;;;14.97;7.27;;;;;;;11.89;79.01;98043.88;5099131;28;20204;-91
2024/01/19 00:55:57;;;;;;;13.93;7.20;;;;;;;12.08;78.98;98038.91;5098699;28;20266;-91
2024/01/19 00:58:23;;;;;;;18.63;7.83;;;;;;;12.30;77.80;98045.03;5117287;28;20178;-93
2024/01/19 01:00:49;;;;;;;14.73;6.97;;;;;;;12.34;78.05;98041.19;5116821;28;20269;-93
2024/01/19 01:03:23;;;;;;;12.30;7.20;;;;;;;12.51;77.65;98039.91;5099109;28;20171;-93
2024/01/19 01:05:49;;;;;;;12.20;6.53;;;;;;;12.55;77.43;98036.06;5105014;27;20254;-93
2024/01/19 01:08:14;;;;;;;12.10;6.10;;;;;;;12.56;77.67;98032.50;5119594;27;20270;-94
2024/01/19 01:10:39;;;;;;;14.10;6.47;;;;;;;12.50;78.65;98032.97;5103675;28;20267;-93
2024/01/19 01:13:06;;;;;;;10.07;5.50;;;;;;;12.55;78.56;98020.28;5098875;28;20210;-92
2024/01/19 01:15:32;;;;;;;8.57;4.70;;;;;;;12.66;78.82;98022.94;5107746;27;20187;-92
2024/01/19 01:17:58;;;;;;;9.70;5.03;;;;;;;12.77;78.79;98029.97;5119125;27;20174;-92
2024/01/19 01:20:23;;;;;;;10.27;5.50;;;;;;;12.77;79.30;98022.94;5119326;27;20617;-92
2024/01/19 01:22:49;;;;;;;12.33;5.80;;;;;;;12.80;79.83;98014.81;5118967;27;20190;-93
2024/01/19 01:25:15;;;;;;;12.30;5.80;;;;;;;12.81;80.18;98016.47;5099202;28;20203;-94
2024/01/19 01:27:41;;;;;;;14.73;5.53;;;;;;;12.86;80.24;98009.06;5098492;28;20406;-93
2024/01/19 01:30:08;;;;;;;10.77;4.93;;;;;;;13.00;80.09;97993.97;5098450;28;20226;-94
2024/01/19 01:32:35;;;;;;;11.97;5.13;;;;;;;13.13;79.54;97992.06;5116197;28;20260;-93
2024/01/19 01:35:01;;;;;;;13.43;5.10;;;;;;;13.37;79.31;97980.34;5116128;28;20179;-94
2024/01/19 01:37:26;;;;;;;10.17;4.40;;;;;;;13.51;78.28;97976.59;5118618;27;20183;-93
2024/01/19 01:39:51;;;;;;;8.10;4.93;;;;;;;13.68;77.68;97975.19;5118649;27;20175;-92
2024/01/19 01:42:18;;;;;;;11.10;4.47;;;;;;;13.79;77.08;97972.47;5137027;27;20175;-92
2024/01/19 01:44:45;;;;;;;12.67;4.60;;;;;;;13.78;77.03;97979.56;5118574;27;20174;-94
2024/01/19 01:47:12;;;;;;;8.53;4.73;;;;;;;13.70;76.58;97982.00;5135601;27;20179;-92
2024/01/19 01:49:39;;;;;;;11.97;7.13;;;;;;;13.60;76.47;97978.44;5097957;28;20208;-92
2024/01/19 01:52:05;;;;;;;12.83;6.80;;;;;;;13.57;75.84;97984.78;5115877;28;20188;-92
2024/01/19 01:54:32;;;;;;;12.10;6.70;;;;;;;13.56;75.31;97987.56;5097889;28;20181;-91
2024/01/19 01:56:59;;;;;;;14.00;7.60;;;;;;;13.63;74.90;97983.47;5115959;28;20174;-92
2024/01/19 01:59:24;;;;;;;14.47;7.40;;;;;;;13.68;74.90;97975.19;5121924;27;20183;-91
2024/01/19 02:01:51;;;;;;;19.17;7.63;;;;;;;13.74;74.24;97985.19;5115965;27;20242;-92
2024/01/19 02:04:17;;;;;;;12.83;7.57;;;;;;;13.78;73.98;97981.38;5098553;28;20173;-93
2024/01/19 02:06:42;;;;;;;11.13;7.20;;;;;;;13.77;73.42;97972.63;5114698;28;20183;-91
2024/01/19 02:09:08;;;;;;;15.67;7.33;;;;;;;13.72;73.28;97972.19;5104527;27;20183;-92
2024/01/19 02:11:35;;;;;;;15.70;7.83;;;;;;;13.62;73.50;97970.44;5117856;27;20174;-92
2024/01/19 02:14:05;;;;;;;11.80;6.60;;;;;;;13.49;74.01;97954.84;5117913;27;20278;-91
2024/01/19 02:16:33;;;;;;;12.03;6.80;;;;;;;13.36;74.48;97951.53;5108767;28;20183;-92
2024/01/19 02:18:58;;;;;;;20.80;8.80;;;;;;;13.39;74.29;97956.56;5101033;27;20615;-92
2024/01/19 02:21:25;;;;;;;18.80;8.83;;;;;;;13.33;73.96;97944.72;5117658;27;20185;-92
2024/01/19 02:24:01;;;;;;;15.63;9.37;;;;;;;13.19;73.73;97941.56;5117871;27;20236;-92
2024/01/19 02:26:32;;;;;;;17.00;9.67;;;;;;;13.43;72.57;97945.66;5135824;27;20189;-92
2024/01/19 02:28:57;;;;;;;20.00;10.67;;;;;;;13.54;72.12;97942.97;5135584;27;20188;-93
2024/01/19 02:31:24;;;;;;;18.00;10.17;;;;;;;13.63;71.72;97941.34;5115288;27;20206;-92
2024/01/19 02:33:51;;;;;;;17.60;9.60;;;;;;;13.65;71.31;97947.31;5114813;28;20239;-92
2024/01/19 02:36:17;;;;;;;19.90;10.90;;;;;;;13.75;70.97;97955.28;5097549;27;20592;-91
2024/01/19 02:38:43;;;;;;;20.03;10.50;;;;;;;13.67;70.73;97949.81;5117279;27;20273;-92
2024/01/19 02:41:08;;;;;;;15.67;9.80;;;;;;;13.60;71.36;97951.31;5117077;27;20271;-91
2024/01/19 02:43:35;;;;;;;18.90;8.60;;;;;;;13.63;70.87;97951.88;5135173;27;20175;-91
2024/01/19 02:46:01;;;;;;;20.73;9.33;;;;;;;13.73;70.57;97955.38;5117067;27;20202;-91
2024/01/19 02:48:27;;;;;;;18.23;9.17;;;;;;;13.83;70.16;97958.94;5132913;27;20167;-91
2024/01/19 02:50:53;;;;;;;25.20;10.33;;;;;;;13.85;69.74;97962.28;5096815;28;20182;-92
2024/01/19 02:53:19;;;;;;;17.27;8.93;;;;;;;13.84;69.92;97965.03;5114377;28;20198;-90
2024/01/19 02:55:46;;;;;;;19.83;9.63;;;;;;;13.86;69.75;97966.56;5130468;27;20179;-90
2024/01/19 02:58:11;;;;;;;20.97;10.13;;;;;;;13.89;69.75;97974.22;5131491;27;20185;-91
2024/01/19 03:00:37;;;;;;;23.10;8.63;;;;;;;13.85;69.81;97970.19;5117048;27;20257;-91
2024/01/19 03:03:04;;;;;;;20.67;9.97;;;;;;;13.76;70.28;97965.66;5117059;27;20183;-90
2024/01/19 03:05:29;;;;;;;16.10;8.87;;;;;;;13.71;70.51;97967.84;5135417;27;20175;-90
2024/01/19 03:07:55;;;;;;;19.57;8.53;;;;;;;13.70;70.60;97970.63;5116726;27;20194;-90
2024/01/19 03:10:20;;;;;;;18.27;8.93;;;;;;;13.77;70.60;97975.25;5116661;27;20170;-92
2024/01/19 03:12:47;;;;;;;18.73;9.43;;;;;;;13.76;70.18;97965.66;5118055;27;20191;-90
2024/01/19 03:15:12;;;;;;;21.43;9.53;;;;;;;13.69;70.66;97961.88;5114375;28;20206;-92
2024/01/19 03:17:39;;;;;;;15.90;8.57;;;;;;;13.77;70.16;97963.88;5114225;28;20199;-91
2024/01/19 03:20:05;;;;;;;15.80;8.40;;;;;;;13.79;70.35;97967.22;5113998;28;20183;-91
2024/01/19 03:22:32;;;;;;;19.80;8.60;;;;;;;13.76;70.14;97973.56;5099846;28;20645;-91
2024/01/19 03:24:59;;;;;;;16.97;8.57;;;;;;;13.75;70.22;97982.44;5116529;28;20186;-91
2024/01/19 03:27:25;;;;;;;18.33;9.03;;;;;;;13.70;70.10;97982.00;5134288;28;20198;-90
2024/01/19 03:29:52;;;;;;;14.53;8.77;;;;;;;13.59;70.63;97968.91;5132667;28;20273;-91
2024/01/19 03:32:18;;;;;;;16.30;8.07;;;;;;;13.54;71.03;97971.91;5114619;28;20274;-90
2024/01/19 03:34:44;;;;;;;16.63;7.63;;;;;;;13.49;71.16;97976.69;5123423;28;20214;-90
2024/01/19 03:37:09;;;;;;;17.47;8.43;;;;;;;13.43;71.60;97989.53;5134360;28;20214;-91
2024/01/19 03:39:34;;;;;;;26.03;8.70;;;;;;;13.57;71.22;97984.00;5134177;28;20703;-90
2024/01/19 03:42:01;;;;;;;16.10;8.57;;;;;;;13.63;71.21;97988.72;5116247;28;20636;-90
2024/01/19 03:44:27;;;;;;;15.90;7.10;;;;;;;13.71;70.79;97977.53;5116303;28;20258;-90
2024/01/19 03:46:53;;;;;;;16.33;8.47;;;;;;;13.67;71.00;97974.34;5116614;28;20218;-91
2024/01/19 03:49:19;;;;;;;15.63;8.40;;;;;;;13.62;71.31;97983.59;5119718;28;20176;-90
2024/01/19 03:52:06;;;;;;;19.83;10.73;;;;;;;13.58;71.18;97990.91;5096008;28;20530;-90
2024/01/19 03:54:32;;;;;;;18.63;8.77;;;;;;;13.65;71.09;97991.25;5095822;28;20187;-90
2024/01/19 03:57:01;;;;;;;16.90;9.07;;;;;;;13.72;70.69;97997.66;5095863;28;20616;-90
2024/01/19 03:59:27;;;;;;;16.40;8.90;;;;;;;13.63;70.39;98004.53;5113557;28;20536;-90
2024/01/19 04:01:55;;;;;;;17.97;10.10;;;;;;;13.68;70.16;98012.88;5117573;28;20178;-90
2024/01/19 04:04:20;;;;;;;20.10;10.03;;;;;;;13.68;70.31;98022.59;5116279;28;20179;-91
2024/01/19 04:06:46;;;;;;;17.03;9.33;;;;;;;13.61;70.32;98016.97;5121356;28;20260;-91
2024/01/19 04:09:11;;;;;;;16.93;9.83;;;;;;;13.56;70.18;98019.16;5113611;28;20172;-91
2024/01/19 04:11:37;;;;;;;21.50;10.63;;;;;;;13.53;70.27;98015.00;5121243;28;20608;-91
2024/01/19 04:14:04;;;;;;;21.17;10.73;;;;;;;13.49;70.16;98004.84;5134007;28;20667;-90
2024/01/19 04:16:31;;;;;;;22.73;11.53;;;;;;;13.51;70.50;98002.91;5133915;28;20178;-90
2024/01/19 04:18:56;;;;;;;22.30;10.93;;;;;;;13.49;70.25;98010.09;5115929;28;20633;-90
2024/01/19 04:21:23;;;;;;;22.90;12.10;;;;;;;13.36;70.60;98007.63;5133919;28;20258;-91
2024/01/19 04:23:48;;;;;;;20.47;11.03;;;;;;;13.30;70.68;98008.16;5133697;28;20628;-91
2024/01/19 04:26:14;;;;;;;18.27;9.60;;;;;;;13.37;70.70;98017.19;5115812;28;20269;-90
2024/01/19 04:28:39;;;;;;;20.27;10.87;;;;;;;13.38;70.46;98025.94;5133736;28;20289;-91
2024/01/19 04:31:09;;;;;;;20.73;10.20;;;;;;;13.48;70.10;98030.31;5109077;28;20203;-90
2024/01/19 04:33:35;;;;;;;22.30;11.40;;;;;;;13.50;70.00;98025.75;5116914;28;20655;-90
2024/01/19 04:36:01;;;;;;;23.80;13.17;;;;;;;13.52;70.17;98023.84;5132995;27;20194;-90
2024/01/19 04:38:26;;;;;;;25.90;14.23;;;;;;;13.50;69.67;98022.28;5127110;27;20186;-90
2024/01/19 04:40:51;;;;;;;24.80;12.77;;;;;;;13.52;69.61;98033.56;5119343;27;20688;-90
2024/01/19 04:43:18;;;;;;;26.37;12.63;;;;;;;13.49;69.00;98033.81;5114129;28;20230;-92
2024/01/19 04:45:44;;;;;;;23.20;13.20;;;;;;;13.39;69.26;98031.06;5109554;27;20182;-90
2024/01/19 04:48:11;;;;;;;26.03;12.13;;;;;;;13.43;69.18;98029.03;5137737;27;20247;-91
2024/01/19 04:50:38;;;;;;;21.37;12.10;;;;;;;13.23;69.76;98033.25;5119488;27;20209;-89
2024/01/19 04:53:05;;;;;;;19.40;11.00;;;;;;;13.05;70.49;98039.97;5119127;27;20191;-90
2024/01/19 04:55:30;;;;;;;23.00;11.97;;;;;;;12.83;71.68;98035.59;5119387;27;20190;-89
2024/01/19 04:57:56;;;;;;;19.53;11.07;;;;;;;12.81;71.82;98039.31;5137024;27;20182;-90
2024/01/19 05:00:22;;;;;;;23.30;11.73;;;;;;;12.81;72.54;98041.94;5136930;27;20655;-90
2024/01/19 05:02:50;;;;;;;26.03;12.17;;;;;;;12.87;72.10;98049.31;5118956;27;20195;-90
2024/01/19 05:05:16;;;;;;;27.90;13.00;;;;;;;12.94;71.84;98050.53;5131587;27;20278;-90
2024/01/19 05:07:41;;;;;;;23.53;12.73;;;;;;;12.92;71.82;98050.63;5117279;27;20451;-91
2024/01/19 05:10:07;;;;;;;30.13;15.57;;;;;;;12.95;71.82;98054.81;5117474;27;20207;-90
2024/01/19 05:12:33;;;;;;;30.90;14.33;;;;;;;13.03;71.60;98052.41;5117792;27;20199;-89
2024/01/19 05:14:58;;;;;;;24.20;13.17;;;;;;;13.07;71.38;98042.53;5117378;27;20190;-90
2024/01/19 05:17:24;;;;;;;27.70;13.73;;;;;;;13.03;71.32;98041.91;5117664;27;20519;-89
2024/01/19 05:19:49;;;;;;;28.13;13.93;;;;;;;13.08;71.35;98038.91;5117872;27;20192;-91
2024/01/19 05:22:15;;;;;;;26.50;14.73;;;;;;;13.09;71.38;98045.88;5132545;27;20190;-91
2024/01/19 05:24:41;;;;;;;21.53;12.67;;;;;;;13.05;71.55;98036.53;5098087;28;20189;-90
2024/01/19 05:27:07;;;;;;;25.70;13.40;;;;;;;13.04;71.57;98040.94;5121083;27;20257;-91
2024/01/19 05:29:32;;;;;;;30.40;14.23;;;;;;;13.05;71.72;98049.69;5136275;27;20285;-90
2024/01/19 05:31:58;;;;;;;23.00;12.60;;;;;;;13.03;71.44;98038.41;5136753;27;20248;-91
2024/01/19 05:34:23;;;;;;;26.77;13.03;;;;;;;12.99;71.53;98044.91;5136568;27;20623;-90
2024/01/19 05:36:49;;;;;;;26.17;13.93;;;;;;;12.98;71.57;98045.84;5118675;27;20643;-91
2024/01/19 05:39:14;;;;;;;24.93;12.20;;;;;;;13.04;71.46;98045.38;5136150;27;20242;-90
2024/01/19 05:41:40;;;;;;;25.10;12.73;;;;;;;13.08;71.28;98050.28;5116035;27;20250;-91
2024/01/19 05:44:05;;;;;;;22.67;12.23;;;;;;;13.12;71.34;98058.78;5097786;28;20271;-90
2024/01/19 05:46:30;;;;;;;23.47;13.13;;;;;;;13.19;71.03;98055.53;5104780;27;20178;-90
2024/01/19 05:48:56;;;;;;;23.07;12.57;;;;;;;13.19;70.99;98058.16;5118291;27;20263;-90
2024/01/19 05:51:21;;;;;;;22.53;13.57;;;;;;;13.21;70.60;98058.03;5117868;27;20198;-91
2024/01/19 05:53:47;;;;;;;23.63;13.63;;;;;;;13.25;70.86;98068.22;5117899;27;20348;-91
2024/01/19 05:56:12;;;;;;;29.47;14.30;;;;;;;13.26;70.97;98071.69;5118161;27;20587;-90
2024/01/19 05:58:38;;;;;;;31.30;15.40;;;;;;;13.28;70.87;98077.66;5117495;27;20179;-90
2024/01/19 06:01:04;;;;;;;33.17;14.90;;;;;;;13.28;71.00;98072.38;5118031;27;20182;-91
2024/01/19 06:03:30;;;;;;;26.83;12.47;;;;;;;13.33;70.46;98076.31;5135875;27;20183;-90
2024/01/19 06:05:56;;;;;;;25.13;13.80;;;;;;;13.18;71.04;98068.81;5136160;27;20274;-90
2024/01/19 06:08:22;;;;;;;25.80;13.93;;;;;;;13.20;71.13;98077.41;5135635;27;20192;-90
2024/01/19 06:10:47;;;;;;;24.47;13.30;;;;;;;13.11;71.43;98070.25;5135648;27;20174;-90
2024/01/19 06:13:13;;;;;;;23.20;11.50;;;;;;;13.19;71.38;98081.00;5117330;27;20205;-91
2024/01/19 06:15:39;;;;;;;24.57;12.67;;;;;;;13.35;70.71;98079.66;5117411;27;20664;-91
2024/01/19 06:18:04;;;;;;;25.33;11.83;;;;;;;13.40;70.59;98076.66;5135902;27;20177;-91
2024/01/19 06:20:30;;;;;;;24.03;11.47;;;;;;;13.43;70.81;98076.41;5136317;27;20178;-90
2024/01/19 06:22:55;;;;;;;21.70;11.07;;;;;;;13.50;71.02;98072.31;5135440;27;20182;-90
2024/01/19 06:25:20;;;;;;;17.77;8.77;;;;;;;13.52;71.39;98075.69;5117518;27;20178;-91
2024/01/19 06:27:46;;;;;;;15.73;8.87;;;;;;;13.60;71.73;98089.03;5117342;27;20657;-91
2024/01/19 06:30:12;;;;;;;14.30;7.27;;;;;;;13.80;72.14;98080.34;5117255;27;20198;-90
2024/01/19 06:32:37;;;;;;;14.10;7.33;;;;;;;14.15;71.83;98086.16;5117178;27;20294;-91
2024/01/19 06:35:03;;;;;;;13.73;6.17;;;;;;;14.43;71.61;98095.25;5116957;27;20186;-90
2024/01/19 06:37:28;;;;;;;12.50;5.17;;;;;;;14.44;71.20;98088.19;5117432;27;20218;-90
2024/01/19 06:39:54;;;;;;;13.33;5.10;;;;;;;14.39;71.83;98082.44;5117601;27;20190;-90
2024/01/19 06:42:20;;;;;;;9.37;4.37;;;;;;;14.70;72.33;98087.59;5117194;27;20672;-91
2024/01/19 06:44:46;;;;;;;12.70;4.97;;;;;;;15.47;73.38;98089.69;5134744;27;20176;-90
2024/01/19 06:47:11;;;;;;;7.23;3.80;;;;;;;16.16;70.26;98087.78;5135008;27;20252;-91
2024/01/19 06:49:36;;;;;;;6.27;3.67;;;;;;;16.68;67.81;98089.09;5134930;27;20561;-91
2024/01/19 06:52:05;;;;;;;9.47;4.33;;;;;;;17.60;66.37;98090.78;5117829;27;20296;-92
2024/01/19 06:54:32;;;;;;;7.77;3.17;;;;;;;18.83;61.44;98093.28;5134778;27;20633;-93
2024/01/19 06:56:58;;;;;;;8.90;4.03;;;;;;;20.24;57.25;98086.25;5116942;27;20579;-91
2024/01/19 06:59:23;;;;;;;5.73;3.00;;;;;;;21.27;52.14;98080.91;5116842;27;20174;-90
2024/01/19 07:01:48;;;;;;;5.50;2.83;;;;;;;21.52;48.92;98081.59;5120399;27;20242;-91
2024/01/19 07:04:14;;;;;;;7.00;3.33;;;;;;;20.87;49.24;98091.66;5098579;28;20172;-91
2024/01/19 07:06:39;;;;;;;5.57;2.73;;;;;;;20.37;50.75;98096.41;5134837;27;20178;-91
2024/01/19 07:09:06;;;;;;;6.00;2.77;;;;;;;20.08;51.19;98096.88;5116695;28;20186;-92
2024/01/19 07:11:31;;;;;;;9.33;2.90;;;;;;;19.85;51.44;98093.19;5135181;27;20183;-92
2024/01/19 07:13:57;;;;;;;8.30;3.73;;;;;;;19.59;51.67;98102.13;5116750;27;20291;-91
2024/01/19 07:16:22;;;;;;;15.67;7.60;;;;;;;19.45;52.39;98101.88;5116754;28;20190;-92
2024/01/19 07:18:48;;;;;;;33.63;15.17;;;;;;;19.66;51.05;98101.44;5123199;27;20183;-91
2024/01/19 07:21:13;;;;;;;28.37;14.87;;;;;;;19.81;50.57;98100.66;5114651;28;20169;-91
2024/01/19 07:23:39;;;;;;;24.30;11.13;;;;;;;19.77;50.58;98104.63;5111525;28;20193;-90
2024/01/19 07:26:04;;;;;;;23.73;13.13;;;;;;;19.64;50.67;98109.59;5116430;28;20197;-91
2024/01/19 07:28:29;;;;;;;36.50;20.47;;;;;;;19.38;51.13;98114.16;5134266;28;20590;-90
2024/01/19 07:30:55;;;;;;;35.27;18.43;;;;;;;19.07;51.68;98111.19;5134507;28;20174;-91
2024/01/19 07:33:20;;;;;;;27.10;14.00;;;;;;;18.80;53.19;98109.53;5116207;28;20197;-91
2024/01/19 07:35:46;;;;;;;26.80;11.00;;;;;;;18.64;54.48;98116.56;5116655;28;20672;-92
2024/01/19 07:38:11;;;;;;;13.43;6.40;;;;;;;18.63;54.36;98113.06;5116520;28;20238;-91
2024/01/19 07:40:36;;;;;;;12.40;5.40;;;;;;;18.38;54.86;98111.19;5116363;28;20182;-91
2024/01/19 07:43:02;;;;;;;9.83;4.93;;;;;;;18.05;55.78;98107.47;5134554;27;20177;-91
2024/01/19 07:45:28;;;;;;;10.53;4.60;;;;;;;17.92;56.75;98106.16;5134659;28;20631;-92
2024/01/19 07:47:53;;;;;;;9.90;4.40;;;;;;;17.70;57.61;98113.56;5113620;28;20538;-91
2024/01/19 07:50:18;;;;;;;6.23;3.77;;;;;;;17.64;58.52;98113.31;5104875;28;20171;-91
2024/01/19 07:52:44;;;;;;;13.27;8.47;;;;;;;17.60;59.22;98112.81;5116560;28;20201;-91
2024/01/19 07:55:09;;;;;;;7.30;4.23;;;;;;;17.66;59.44;98116.69;5116239;28;20580;-92
2024/01/19 07:57:40;;;;;;;5.00;2.70;;;;;;;17.69;59.67;98106.59;5116160;28;20600;-92
2024/01/19 08:00:06;;;;;;;7.17;2.60;;;;;;;17.68;60.89;98110.25;5134347;28;20184;-91
2024/01/19 08:02:32;;;;;;;4.83;2.10;;;;;;;17.64;61.22;98114.16;5116072;28;20186;-91
2024/01/19 08:04:57;;;;;;;3.67;1.83;;;;;;;17.72;61.78;98108.13;5117157;27;20186;-92
2024/01/19 08:07:24;;;;;;;3.33;1.77;;;;;;;17.82;61.74;98105.41;5121063;27;20243;-91
2024/01/19 08:09:50;;;;;;;3.10;1.73;;;;;;;18.01;62.13;98115.84;5138750;27;20175;-92
2024/01/19 08:12:16;;;;;;;5.03;1.50;;;;;;;18.16;61.74;98122.31;5118012;27;20280;-91
2024/01/19 08:14:44;;;;;;;5.20;1.63;;;;;;;18.28;60.71;98119.25;5117502;28;20172;-90
2024/01/19 08:17:10;;;;;;;3.30;1.67;;;;;;;18.38;60.62;98113.84;5107982;27;20178;-91
2024/01/19 08:19:35;;;;;;;5.53;2.00;;;;;;;18.53;61.20;98115.00;5120259;27;20181;-91
2024/01/19 08:22:00;;;;;;;4.47;2.03;;;;;;;18.48;60.14;98119.94;5137601;27;20179;-91
2024/01/19 08:24:26;;;;;;;6.03;1.63;;;;;;;18.47;60.76;98110.31;5120639;27;20182;-90
2024/01/19 08:26:51;;;;;;;1.97;1.17;;;;;;;18.43;58.75;98112.41;5137748;27;20703;-91
2024/01/19 08:29:17;;;;;;;3.30;1.20;;;;;;;18.63;59.08;98102.44;5119413;27;20276;-91
2024/01/19 08:31:43;;;;;;;3.87;1.13;;;;;;;18.89;59.05;98103.25;5137909;27;20265;-91
2024/01/19 08:34:12;;;;;;;5.80;1.70;;;;;;;19.05;58.17;98117.66;5137715;27;20170;-91
2024/01/19 08:36:41;;;;;;;3.30;1.20;;;;;;;19.09;57.33;98114.50;5119290;27;20261;-91
2024/01/19 08:39:09;;;;;;;3.10;1.60;;;;;;;19.29;56.28;98120.41;5137343;27;20182;-90
2024/01/19 08:41:43;;;;;;;7.07;2.20;;;;;;;19.41;57.26;98119.16;5137461;27;20238;-93
2024/01/19 08:44:09;;;;;;;3.43;0.97;;;;;;;19.56;56.90;98129.03;5137377;27;20151;-91
2024/01/19 08:46:37;;;;;;;2.13;0.93;;;;;;;19.68;55.71;98131.38;5119273;27;20191;-92
2024/01/19 08:49:02;;;;;;;12.33;4.27;;;;;;;19.81;54.69;98132.56;5137027;27;20193;-92
2024/01/19 08:51:28;;;;;;;7.53;2.60;;;;;;;19.99;55.37;98127.13;5115980;28;20181;-90
2024/01/19 08:53:54;;;;;;;7.47;2.87;;;;;;;20.13;54.91;98126.47;5098861;28;20238;-91
2024/01/19 08:56:23;;;;;;;8.13;2.17;;;;;;;20.28;55.03;98124.88;5107738;27;20206;-92
2024/01/19 08:58:49;;;;;;;2.80;1.20;;;;;;;20.32;51.94;98130.66;5119424;27;20171;-91
2024/01/19 09:01:18;;;;;;;4.37;1.10;;;;;;;20.51;52.24;98135.66;5119866;27;20186;-92
2024/01/19 09:03:44;;;;;;;2.60;0.90;;;;;;;20.59;51.63;98133.00;5118955;27;20175;-91
2024/01/19 09:06:09;;;;;;;2.80;1.00;;;;;;;20.71;51.03;98142.31;5136946;27;20624;-90
2024/01/19 09:08:35;;;;;;;4.53;1.07;;;;;;;20.74;49.96;98141.97;5136997;27;20231;-90
2024/01/19 09:11:00;;;;;;;2.20;0.80;;;;;;;20.70;48.84;98148.66;5118882;27;20178;-92
2024/01/19 09:13:27;;;;;;;1.80;1.03;;;;;;;20.77;47.56;98147.81;5118663;27;20195;-90
2024/01/19 09:15:53;;;;;;;1.87;0.50;;;;;;;20.93;47.98;98144.28;5137043;27;20168;-91
2024/01/19 09:18:19;;;;;;;5.20;0.97;;;;;;;20.98;46.98;98144.59;5136665;27;20198;-92
2024/01/19 09:20:45;;;;;;;5.03;0.73;;;;;;;21.08;47.26;98139.09;5136850;27;20175;-91
2024/01/19 09:23:10;;;;;;;3.00;0.60;;;;;;;21.15;45.63;98137.41;5137262;27;20188;-91
2024/01/19 09:25:36;;;;;;;3.47;0.63;;;;;;;20.93;47.07;98135.44;5136715;27;20186;-91
2024/01/19 09:28:02;;;;;;;2.00;0.73;;;;;;;21.21;46.65;98134.91;5136687;27;20585;-91
2024/01/19 09:30:27;;;;;;;1.30;0.50;;;;;;;21.45;45.66;98128.66;5119097;27;20183;-92
2024/01/19 09:32:53;;;;;;;2.13;0.60;;;;;;;21.61;44.92;98119.75;5118834;27;20210;-91
2024/01/19 09:35:18;;;;;;;2.90;0.93;;;;;;;21.79;42.89;98123.81;5136258;27;20220;-91
2024/01/19 09:37:44;;;;;;;0.60;0.30;;;;;;;21.87;42.84;98120.28;5136453;27;20179;-91
2024/01/19 09:40:10;;;;;;;4.10;1.00;;;;;;;21.94;42.14;98116.75;5118385;27;20314;-93
2024/01/19 09:42:39;;;;;;;1.60;0.67;;;;;;;21.84;42.42;98115.28;5136437;27;20232;-91
2024/01/19 09:45:07;;;;;;;1.73;0.40;;;;;;;22.00;43.63;98117.88;5118059;27;20182;-91
2024/01/19 09:47:48;;;;;;;2.33;0.63;;;;;;;22.16;43.84;98111.59;5118013;27;20190;-92
2024/01/19 09:50:22;;;;;;;1.27;0.50;;;;;;;22.20;43.48;98115.53;5136816;27;20223;-91
2024/01/19 09:52:56;;;;;;;2.30;0.50;;;;;;;22.28;42.52;98115.50;5118238;27;20281;-91
2024/01/19 09:55:24;;;;;;;7.40;1.70;;;;;;;22.40;44.13;98116.75;5136102;27;20261;-90
2024/01/19 09:57:49;;;;;;;6.17;1.67;;;;;;;22.34;44.86;98115.63;5135878;27;20554;-93
2024/01/19 10:00:17;;;;;;;4.07;1.53;;;;;;;22.26;45.74;98118.34;5135901;27;20179;-92
2024/01/19 10:02:50;;;;;;;7.70;1.90;;;;;;;22.31;46.12;98117.81;5135930;27;20253;-92
2024/01/19 10:05:18;;;;;;;3.90;0.80;;;;;;;22.47;44.29;98120.34;5118007;27;20178;-91
2024/01/19 10:07:53;;;;;;;3.30;1.20;;;;;;;22.46;42.85;98116.84;5134037;27;20228;-91
2024/01/19 10:10:19;;;;;;;2.53;0.60;;;;;;;22.55;42.93;98113.09;5117542;27;20182;-91
2024/01/19 10:12:44;;;;;;;1.40;0.43;;;;;;;22.47;42.20;98113.16;5117668;27;20190;-92
2024/01/19 10:15:12;;;;;;;5.93;1.03;;;;;;;22.76;43.76;98116.94;5105574;28;20193;-91
2024/01/19 10:17:39;;;;;;;2.43;0.70;;;;;;;22.86;41.99;98098.78;5105776;27;20827;-91
2024/01/19 10:20:06;;;;;;;5.03;1.10;;;;;;;23.05;42.67;98101.78;5117547;27;20608;-91
2024/01/19 10:22:32;;;;;;;1.47;0.53;;;;;;;23.25;41.66;98091.34;5117299;27;20246;-92
2024/01/19 10:25:05;;;;;;;3.10;0.70;;;;;;;23.42;41.70;98086.66;5117539;27;20206;-91
2024/01/19 10:27:38;;;;;;;2.03;0.50;;;;;;;23.65;41.44;98084.66;5116825;27;20185;-91
2024/01/19 10:30:24;;;;;;;2.93;0.60;;;;;;;23.83;39.85;98077.88;5117543;27;20190;-94
2024/01/19 10:32:51;;;;;;;2.00;0.60;;;;;;;23.94;39.95;98070.34;5097017;28;20282;-91
2024/01/19 10:35:19;;;;;;;1.27;0.60;;;;;;;23.91;39.64;98070.72;5097078;28;20183;-92
2024/01/19 10:37:45;;;;;;;1.27;0.47;;;;;;;24.00;39.66;98058.91;5123818;27;20170;-94
2024/01/19 10:40:15;;;;;;;3.07;0.43;;;;;;;23.87;38.13;98053.41;5135377;27;20175;-94
2024/01/19 10:42:42;;;;;;;3.67;0.90;;;;;;;23.68;39.55;98045.00;5117247;27;20632;-93
2024/01/19 10:45:15;;;;;;;3.43;1.40;;;;;;;23.72;38.58;98051.59;5135327;27;20182;-91
2024/01/19 10:47:45;;;;;;;2.40;1.00;;;;;;;23.69;40.03;98046.63;5116716;27;20546;-91
2024/01/19 10:50:13;;;;;;;3.90;1.13;;;;;;;23.82;40.47;98040.59;5117257;27;20575;-92
2024/01/19 10:52:40;;;;;;;3.40;1.30;;;;;;;23.68;40.52;98045.00;5117094;27;20198;-92
2024/01/19 10:55:06;;;;;;;2.30;0.97;;;;;;;23.89;40.38;98041.50;5134890;27;20648;-92
2024/01/19 10:57:31;;;;;;;3.37;1.00;;;;;;;24.05;39.29;98041.25;5135327;27;20171;-93
2024/01/19 10:59:56;;;;;;;2.07;0.93;;;;;;;23.94;39.22;98038.25;5116936;27;20187;-91
2024/01/19 11:02:23;;;;;;;2.77;1.07;;;;;;;24.00;39.61;98040.16;5116966;27;20193;-91
2024/01/19 11:04:51;;;;;;;3.80;1.27;;;;;;;24.38;38.88;98028.97;5116918;27;20177;-92
2024/01/19 11:07:16;;;;;;;3.97;1.10;;;;;;;24.20;38.69;98027.78;5117130;27;20261;-91
2024/01/19 11:09:42;;;;;;;3.63;1.10;;;;;;;24.17;39.29;98020.97;5134831;27;20273;-93
2024/01/19 11:12:11;;;;;;;2.03;0.87;;;;;;;24.42;38.58;98024.88;5117325;27;20207;-91
2024/01/19 11:14:38;;;;;;;2.53;0.63;;;;;;;24.48;38.00;98020.59;5116690;28;20608;-91
2024/01/19 11:17:04;;;;;;;2.40;0.93;;;;;;;24.48;37.58;98017.91;5116926;27;20243;-93
2024/01/19 11:19:30;;;;;;;3.00;1.13;;;;;;;24.57;38.32;98024.78;5116999;27;20175;-92
2024/01/19 11:21:57;;;;;;;7.23;1.33;;;;;;;24.69;37.84;98025.91;5116573;28;20210;-92
2024/01/19 11:24:26;;;;;;;4.80;1.10;;;;;;;24.60;37.26;98023.56;5116764;27;20183;-93